Página principal
METAR-TAF:

METAR-TAF

Aeroportos :

Navoiy, Uzbequistão

latitude: 40-07-04N, longitude: 065-10-30E, altura: 348 m

Observação actual do tempo

O boletim foi feito há 37 minutos, às 22:00 UTC
Vento 6 kt de nor-noroeste
Temperatura 6°C
Humidade 49%
Pressão 1026 hPa
Visibilidade 10 km ou mais

METAR: UTSA 152200Z 33006KT 9999 NSC 06/M04 Q1026 R25/CLRD70 NOSIG

Hora: 03:37 (22:37 UTC)

Previsão

O boletim foi feito há 5 horas e 36 minutos, às 17:01 UTC
Previsão válida de 15 às 18 UTC a 16 às 18 UTC
Vento 3 kt com direcção variável
Visibilidade: 7000 m
Poucas nuvensa uma altura de 3300 ft
Temporariamente
de 15 às 18 UTC a 16 às 05 UTC
Vento 10 kt de nor-noroeste
Visibilidade: 3000 m
Nuvens fragmentadasa uma altura de 5000 ft, Cumulonimbus.
neblina

TAF: UTSA 151701Z 1518/1618 VRB03KT 7000 FEW033 TEMPO 1518/1605 34010KT 3000 BR BKN050CB

Observações e previsões do tempo de mais de 4000 aeroportos (mensagens METAR e TAF).

As estações disponíveis são os pontos amarelos e vermelhos sobre o mapa.

Mova o rato sobre o mapa para ver o nome da estação.

Depois clique no ponto para visualizar as observações e previsões meteorológicas.

Para alterar o mapa : clique nos botões verdes com uma cruz preta para aumentar o zoom; no botão verde com uma pitada de zoom; ou nas setas verdes para mapas adjacentes.


METAR-TAF: